createdAt,value
2023-04-25T00:00:18.638Z,74.22
2023-04-25T00:02:41.582Z,74.19
2023-04-25T00:05:04.710Z,74.38
2023-04-25T00:07:27.824Z,74.27
2023-04-25T00:09:50.539Z,74.35
2023-04-25T00:12:13.411Z,74.62
2023-04-25T00:14:36.598Z,74.87
2023-04-25T00:17:00.102Z,74.90
2023-04-25T00:19:22.892Z,75.28
2023-04-25T00:21:47.345Z,75.72
2023-04-25T00:24:10.075Z,75.53
2023-04-25T00:26:32.775Z,75.64
2023-04-25T00:28:55.532Z,75.84
2023-04-25T00:31:18.403Z,76.16
2023-04-25T00:33:41.153Z,76.11
2023-04-25T00:36:04.069Z,76.00
2023-04-25T00:38:26.648Z,76.49
2023-04-25T00:40:49.442Z,76.40
2023-04-25T00:43:12.008Z,76.77
2023-04-25T00:45:39.691Z,77.06
2023-04-25T00:48:03.014Z,77.56
2023-04-25T00:50:25.950Z,77.62
2023-04-25T00:52:48.716Z,77.98
2023-04-25T00:55:13.469Z,78.21
2023-04-25T00:57:36.397Z,78.68
2023-04-25T01:00:00.199Z,78.83
2023-04-25T01:02:25.262Z,78.37
2023-04-25T01:04:49.269Z,77.91
2023-04-25T01:07:11.972Z,78.02
2023-04-25T01:09:34.954Z,78.04
2023-04-25T01:11:58.722Z,77.40
2023-04-25T01:14:24.747Z,77.02
2023-04-25T01:16:48.165Z,76.55
2023-04-25T01:19:13.357Z,76.23
2023-04-25T01:21:36.052Z,75.98
2023-04-25T01:23:59.335Z,75.34
2023-04-25T01:26:23.078Z,75.03
2023-04-25T01:28:46.426Z,74.59
2023-04-25T01:31:09.554Z,73.61
2023-04-25T01:33:32.316Z,73.33
2023-04-25T01:35:54.965Z,73.12
2023-04-25T01:38:17.635Z,73.33
2023-04-25T01:40:41.753Z,72.83
2023-04-25T01:43:04.564Z,72.40
2023-04-25T01:45:27.259Z,72.03
2023-04-25T01:47:51.061Z,71.67
2023-04-25T01:50:14.242Z,71.83
2023-04-25T01:52:37.025Z,71.24
2023-04-25T01:55:03.716Z,71.42
2023-04-25T01:57:29.638Z,71.64
2023-04-25T01:59:52.907Z,71.34
2023-04-25T02:02:52.003Z,71.42
2023-04-25T02:05:25.727Z,70.75
2023-04-25T02:07:49.552Z,70.53
2023-04-25T02:10:12.693Z,70.27
2023-04-25T02:13:11.202Z,70.40
2023-04-25T02:16:03.438Z,70.23
2023-04-25T02:18:27.472Z,70.09
2023-04-25T02:20:50.198Z,70.45
2023-04-25T02:23:13.326Z,69.95
2023-04-25T02:25:35.934Z,70.02
2023-04-25T02:27:58.622Z,69.85
2023-04-25T02:30:21.351Z,69.96
2023-04-25T02:32:44.447Z,70.03
2023-04-25T02:35:07.688Z,69.85
2023-04-25T02:37:34.737Z,69.32
2023-04-25T02:39:57.794Z,69.31
2023-04-25T02:42:20.521Z,69.54
2023-04-25T02:44:43.512Z,69.57
2023-04-25T02:47:06.356Z,69.83
2023-04-25T02:49:29.019Z,69.98
2023-04-25T02:51:51.811Z,69.67
2023-04-25T02:54:14.578Z,69.62
2023-04-25T02:56:40.680Z,69.54
2023-04-25T02:59:08.848Z,69.76
2023-04-25T03:01:32.383Z,69.49
2023-04-25T03:03:55.870Z,70.16
2023-04-25T03:06:18.696Z,68.90
2023-04-25T03:08:41.260Z,68.15
2023-04-25T03:11:04.019Z,68.92
2023-04-25T03:13:26.933Z,67.67
2023-04-25T03:15:49.593Z,68.42
2023-04-25T03:18:12.271Z,68.46
2023-04-25T03:20:35.976Z,68.24
2023-04-25T03:22:59.986Z,68.76
2023-04-25T03:25:23.749Z,68.91
2023-04-25T03:27:46.452Z,69.20
2023-04-25T03:30:09.619Z,71.03
2023-04-25T03:32:33.580Z,69.33
2023-04-25T03:34:56.527Z,70.79
2023-04-25T03:37:21.588Z,72.95
2023-04-25T03:39:44.990Z,69.14
2023-04-25T03:42:07.723Z,69.65
2023-04-25T03:44:30.401Z,71.31
2023-04-25T03:46:53.497Z,70.25
2023-04-25T03:49:19.424Z,72.01
2023-04-25T03:52:08.864Z,71.40
2023-04-25T03:54:35.722Z,72.10
2023-04-25T03:57:02.398Z,70.83
2023-04-25T03:59:28.134Z,71.41
2023-04-25T04:01:51.015Z,71.33
2023-04-25T04:04:14.204Z,71.68
2023-04-25T04:06:37.564Z,71.91
2023-04-25T04:09:12.079Z,72.64
2023-04-25T04:11:37.846Z,72.96
2023-04-25T04:14:01.055Z,74.16
2023-04-25T04:16:24.276Z,72.80
2023-04-25T04:18:47.243Z,73.13
2023-04-25T04:21:09.971Z,73.66
2023-04-25T04:23:38.924Z,74.04
2023-04-25T04:26:02.520Z,74.82
2023-04-25T04:28:25.091Z,74.38
2023-04-25T04:30:58.852Z,75.38
2023-04-25T04:33:24.605Z,75.70
2023-04-25T04:35:54.533Z,75.66
2023-04-25T04:38:17.930Z,76.24
2023-04-25T04:40:40.704Z,76.93
2023-04-25T04:43:11.152Z,77.14
2023-04-25T04:45:57.309Z,78.20
2023-04-25T04:48:35.424Z,79.17
2023-04-25T04:51:24.259Z,80.29
2023-04-25T04:54:10.449Z,80.60
2023-04-25T04:56:42.935Z,81.55
2023-04-25T04:59:22.429Z,81.86
2023-04-25T05:02:08.393Z,82.22
2023-04-25T05:04:50.072Z,82.49
2023-04-25T05:07:31.743Z,82.51
2023-04-25T05:10:06.202Z,82.88
2023-04-25T05:12:37.828Z,82.29
2023-04-25T05:15:12.344Z,83.19
2023-04-25T05:17:58.088Z,83.39
2023-04-25T05:20:28.489Z,83.32
2023-04-25T05:22:57.286Z,83.48
2023-04-25T05:25:37.395Z,83.31
2023-04-25T05:28:09.370Z,83.16
2023-04-25T05:30:55.526Z,83.58
2023-04-25T05:33:24.860Z,83.22
2023-04-25T05:35:47.581Z,82.76
2023-04-25T05:38:11.039Z,82.51
2023-04-25T05:41:08.874Z,82.51
2023-04-25T05:43:58.339Z,83.22
2023-04-25T05:46:41.500Z,82.72
2023-04-25T05:49:32.355Z,82.02
2023-04-25T05:51:55.680Z,82.10
2023-04-25T05:54:39.065Z,82.12
2023-04-25T05:57:03.780Z,80.78
2023-04-25T05:59:26.970Z,80.67
2023-04-25T06:01:50.425Z,79.78
2023-04-25T06:04:13.856Z,79.38
2023-04-25T06:06:37.249Z,78.94
2023-04-25T06:09:00.354Z,79.35
2023-04-25T06:11:23.353Z,78.65
2023-04-25T06:13:46.955Z,78.09
2023-04-25T06:16:13.049Z,76.57
2023-04-25T06:18:36.036Z,77.24
2023-04-25T06:20:58.765Z,76.51
2023-04-25T06:23:22.095Z,75.90
2023-04-25T06:25:48.870Z,75.49
2023-04-25T06:28:11.762Z,75.27
2023-04-25T06:30:34.564Z,74.48
2023-04-25T06:33:02.936Z,73.63
2023-04-25T06:35:26.371Z,74.51
2023-04-25T06:37:49.653Z,74.06
2023-04-25T06:40:18.565Z,73.43
2023-04-25T06:42:41.267Z,72.92
2023-04-25T06:45:22.468Z,72.82
2023-04-25T06:47:45.582Z,71.57
2023-04-25T06:50:09.552Z,72.00
2023-04-25T06:52:33.228Z,71.50
2023-04-25T06:54:56.018Z,70.19
2023-04-25T06:57:37.479Z,69.13
2023-04-25T07:00:26.270Z,68.92
2023-04-25T07:02:49.541Z,67.42
2023-04-25T07:05:13.705Z,66.05
2023-04-25T07:07:37.727Z,64.84
2023-04-25T07:10:00.659Z,63.98
2023-04-25T07:12:25.516Z,63.31
2023-04-25T07:14:48.798Z,62.96
2023-04-25T07:17:12.124Z,62.39
2023-04-25T07:19:35.750Z,61.79
2023-04-25T07:21:59.002Z,60.94
2023-04-25T07:24:22.973Z,59.64
2023-04-25T07:26:46.940Z,61.16
2023-04-25T07:29:23.769Z,60.73
2023-04-25T07:31:47.293Z,61.60
2023-04-25T07:34:11.652Z,61.67
2023-04-25T07:36:35.349Z,61.70
2023-04-25T07:38:58.076Z,61.49
2023-04-25T07:41:21.052Z,62.13
2023-04-25T07:43:43.746Z,62.10
2023-04-25T07:46:07.444Z,63.20
2023-04-25T07:48:31.376Z,62.49
2023-04-25T07:50:54.221Z,63.78
2023-04-25T07:53:18.626Z,61.75
2023-04-25T07:55:48.124Z,61.97
2023-04-25T07:58:13.106Z,60.29
2023-04-25T08:00:37.689Z,58.96
2023-04-25T08:03:23.341Z,58.97
2023-04-25T08:05:47.272Z,59.87
2023-04-25T08:08:10.919Z,57.81
2023-04-25T08:10:34.526Z,56.73
2023-04-25T08:12:57.151Z,58.44
2023-04-25T08:15:23.528Z,58.02
2023-04-25T08:17:46.614Z,58.24
2023-04-25T08:20:11.197Z,57.26
2023-04-25T08:22:36.016Z,57.27
2023-04-25T08:25:17.652Z,58.50
2023-04-25T08:27:40.983Z,57.83
2023-04-25T08:30:09.407Z,57.53
2023-04-25T08:32:34.895Z,58.91
2023-04-25T08:35:24.020Z,59.25
2023-04-25T08:37:47.926Z,59.26
2023-04-25T08:40:15.646Z,59.14
2023-04-25T08:42:51.900Z,58.42
2023-04-25T08:45:14.967Z,58.73
2023-04-25T08:47:41.032Z,58.70
2023-04-25T08:50:06.601Z,57.07
2023-04-25T08:52:38.621Z,56.86
2023-04-25T08:55:02.534Z,56.75
2023-04-25T08:57:26.527Z,56.83
2023-04-25T08:59:50.331Z,55.95
2023-04-25T09:02:19.105Z,56.36
2023-04-25T09:04:45.852Z,56.85
2023-04-25T09:07:09.236Z,55.89
2023-04-25T09:09:32.431Z,57.07
2023-04-25T09:11:56.553Z,57.18
2023-04-25T09:14:23.333Z,56.45
2023-04-25T09:17:12.399Z,56.34
2023-04-25T09:19:42.186Z,55.96
2023-04-25T09:22:27.225Z,55.62
2023-04-25T09:24:52.263Z,55.05
2023-04-25T09:27:23.996Z,55.16
2023-04-25T09:30:03.066Z,54.71
2023-04-25T09:36:40.110Z,54.60
2023-04-25T09:39:22.611Z,53.82
2023-04-25T09:41:56.198Z,54.72
2023-04-25T09:44:25.783Z,54.44
2023-04-25T09:46:54.744Z,54.55
2023-04-25T09:49:30.494Z,54.55
2023-04-25T09:51:59.803Z,54.48
2023-04-25T09:54:28.379Z,53.24
2023-04-25T09:57:12.683Z,53.40
2023-04-25T09:59:40.243Z,54.08
2023-04-25T10:02:26.747Z,55.22
2023-04-25T10:04:57.287Z,54.35
2023-04-25T10:07:32.578Z,53.71
2023-04-25T10:10:04.202Z,53.99
2023-04-25T10:12:28.182Z,52.75
2023-04-25T10:14:52.917Z,53.42
2023-04-25T10:17:16.577Z,53.29
2023-04-25T10:19:40.570Z,52.65
2023-04-25T10:22:03.236Z,52.47
2023-04-25T10:24:26.842Z,52.41
2023-04-25T10:26:51.388Z,53.03
2023-04-25T10:29:22.552Z,53.92
2023-04-25T10:31:48.579Z,53.74
2023-04-25T10:34:11.440Z,55.02
2023-04-25T10:36:35.129Z,55.68
2023-04-25T10:38:59.289Z,54.70
2023-04-25T10:41:23.939Z,55.02
2023-04-25T10:43:48.220Z,53.70
2023-04-25T10:46:36.201Z,53.61
2023-04-25T10:49:01.624Z,52.33
2023-04-25T10:51:34.582Z,52.77
2023-04-25T10:54:05.757Z,52.27
2023-04-25T10:56:31.228Z,52.48
2023-04-25T10:59:11.526Z,53.14
2023-04-25T11:01:40.089Z,51.26
2023-04-25T11:04:03.248Z,50.76
2023-04-25T11:06:32.829Z,49.17
2023-04-25T11:08:56.003Z,49.15
2023-04-25T11:11:19.917Z,50.89
2023-04-25T11:13:42.707Z,50.18
2023-04-25T11:16:13.047Z,50.67
2023-04-25T11:18:43.033Z,50.90
2023-04-25T11:21:05.992Z,51.07
2023-04-25T11:23:28.854Z,50.09
2023-04-25T11:25:53.682Z,49.87
2023-04-25T11:28:23.634Z,49.80
2023-04-25T11:30:53.300Z,48.76
2023-04-25T11:33:16.619Z,50.34
2023-04-25T11:35:41.977Z,49.57
2023-04-25T11:38:05.671Z,50.19
2023-04-25T11:40:28.563Z,47.22
2023-04-25T11:42:51.477Z,46.20
2023-04-25T11:45:17.307Z,46.73
2023-04-25T11:47:40.938Z,45.95
2023-04-25T11:50:06.370Z,45.31
2023-04-25T11:52:48.983Z,43.89
2023-04-25T11:55:53.996Z,43.94
2023-04-25T11:58:16.848Z,42.27
2023-04-25T12:00:50.193Z,41.54
2023-04-25T12:03:13.852Z,43.21
2023-04-25T12:05:38.980Z,43.04
2023-04-25T12:08:12.910Z,44.29
2023-04-25T12:10:39.552Z,42.47
2023-04-25T12:13:19.623Z,44.42
2023-04-25T12:15:42.602Z,41.74
2023-04-25T12:18:05.489Z,41.47
2023-04-25T12:20:28.235Z,41.03
2023-04-25T12:22:52.332Z,41.16
2023-04-25T12:25:35.569Z,40.68
2023-04-25T12:28:15.144Z,40.70
2023-04-25T12:31:06.985Z,39.96
2023-04-25T12:33:32.054Z,38.47
2023-04-25T12:35:55.578Z,40.41
2023-04-25T12:38:23.356Z,40.54
2023-04-25T12:40:46.187Z,42.01
2023-04-25T12:43:09.226Z,42.01
2023-04-25T12:45:33.242Z,41.99
2023-04-25T12:47:56.126Z,42.60
2023-04-25T12:50:18.892Z,43.14
2023-04-25T12:52:41.830Z,42.10
2023-04-25T12:55:04.926Z,42.90
2023-04-25T12:57:27.860Z,43.47
2023-04-25T12:59:50.650Z,42.64
2023-04-25T13:02:13.679Z,42.62
2023-04-25T13:04:37.357Z,41.67
2023-04-25T13:07:00.161Z,43.67
2023-04-25T13:09:22.875Z,41.88
2023-04-25T13:11:47.042Z,42.58
2023-04-25T13:14:09.886Z,42.68
2023-04-25T13:16:33.107Z,40.10
2023-04-25T13:18:57.355Z,41.02
2023-04-25T13:21:20.463Z,40.22
2023-04-25T13:23:47.743Z,42.67
2023-04-25T13:26:10.555Z,40.82
2023-04-25T13:28:33.332Z,41.71
2023-04-25T13:30:56.243Z,41.57
2023-04-25T13:33:19.954Z,42.63
2023-04-25T13:35:43.187Z,42.02
2023-04-25T13:38:06.353Z,43.08
2023-04-25T13:40:29.386Z,41.84
2023-04-25T13:42:52.384Z,42.66
2023-04-25T13:45:15.242Z,42.65
2023-04-25T13:47:38.040Z,43.46
2023-04-25T13:50:01.232Z,43.19
2023-04-25T13:52:27.088Z,42.23
2023-04-25T13:54:49.904Z,42.98
2023-04-25T13:57:12.859Z,42.99
2023-04-25T13:59:35.625Z,43.64
2023-04-25T14:01:58.389Z,42.56
2023-04-25T14:04:21.354Z,42.18
2023-04-25T14:06:44.508Z,42.17
2023-04-25T14:09:08.262Z,43.35
2023-04-25T14:11:30.962Z,43.14
2023-04-25T14:13:54.149Z,43.96
2023-04-25T14:16:17.644Z,45.34
2023-04-25T14:18:40.461Z,44.80
2023-04-25T14:21:03.203Z,44.50
2023-04-25T14:23:26.141Z,45.44
2023-04-25T14:25:48.764Z,43.78
2023-04-25T14:28:11.977Z,43.13
2023-04-25T14:30:34.709Z,43.07
2023-04-25T14:32:57.590Z,43.73
2023-04-25T14:35:20.328Z,43.56
2023-04-25T14:37:43.128Z,44.33
2023-04-25T14:40:08.182Z,44.66
2023-04-25T14:42:31.492Z,44.66
2023-04-25T14:44:54.116Z,44.82
2023-04-25T14:47:17.078Z,46.69
2023-04-25T14:49:42.238Z,46.51
2023-04-25T14:52:05.140Z,46.42
2023-04-25T14:54:27.962Z,45.45
2023-04-25T14:56:51.030Z,46.05
2023-04-25T14:59:13.802Z,45.99
2023-04-25T15:01:37.262Z,47.21
2023-04-25T15:04:00.440Z,47.36
2023-04-25T15:06:24.134Z,47.72
2023-04-25T15:08:47.082Z,47.40
2023-04-25T15:11:12.187Z,47.49
2023-04-25T15:13:36.088Z,47.60
2023-04-25T15:15:59.286Z,46.87
2023-04-25T15:18:26.048Z,46.71
2023-04-25T15:20:49.406Z,46.95
2023-04-25T15:23:12.374Z,47.77
2023-04-25T15:25:35.274Z,47.56
2023-04-25T15:27:58.631Z,47.88
2023-04-25T15:30:22.162Z,46.86
2023-04-25T15:32:48.681Z,47.27
2023-04-25T15:35:12.212Z,47.69
2023-04-25T15:37:36.371Z,47.78
2023-04-25T15:40:10.186Z,48.46
2023-04-25T15:42:32.916Z,47.55
2023-04-25T15:44:55.695Z,49.16
2023-04-25T15:47:18.341Z,48.96
2023-04-25T15:49:41.302Z,49.15
2023-04-25T15:52:04.036Z,49.81
2023-04-25T15:54:26.696Z,50.76
2023-04-25T15:56:49.347Z,52.36
2023-04-25T15:59:11.946Z,53.64
2023-04-25T16:01:34.950Z,53.12
2023-04-25T16:03:59.084Z,53.68
2023-04-25T16:06:22.418Z,52.90
2023-04-25T16:08:45.039Z,51.32
2023-04-25T16:11:08.247Z,51.90
2023-04-25T16:13:31.138Z,50.91
2023-04-25T16:15:53.943Z,50.36
2023-04-25T16:18:17.385Z,50.83
2023-04-25T16:20:40.358Z,51.03
2023-04-25T16:23:02.947Z,51.12
2023-04-25T16:25:25.653Z,51.88
2023-04-25T16:27:48.348Z,52.27
2023-04-25T16:30:11.775Z,51.91
2023-04-25T16:32:35.790Z,52.31
2023-04-25T16:34:59.051Z,52.38
2023-04-25T16:37:21.936Z,52.61
2023-04-25T16:39:44.695Z,52.88
2023-04-25T16:42:07.397Z,52.62
2023-04-25T16:44:31.017Z,52.47
2023-04-25T16:46:53.644Z,52.46
2023-04-25T16:49:16.994Z,53.46
2023-04-25T16:51:39.880Z,53.32
2023-04-25T16:54:02.753Z,53.49
2023-04-25T16:56:25.349Z,53.85
2023-04-25T16:58:48.080Z,54.24
2023-04-25T17:01:11.715Z,54.92
2023-04-25T17:03:35.740Z,55.14
2023-04-25T17:06:01.207Z,55.59
2023-04-25T17:08:24.450Z,56.03
2023-04-25T17:10:50.040Z,55.99
2023-04-25T17:13:12.946Z,56.53
2023-04-25T17:15:36.012Z,57.16
2023-04-25T17:18:00.469Z,57.48
2023-04-25T17:20:23.504Z,57.86
2023-04-25T17:22:46.360Z,58.53
2023-04-25T17:25:09.591Z,58.86
2023-04-25T17:27:32.990Z,58.63
2023-04-25T17:29:56.336Z,58.16
2023-04-25T17:32:18.981Z,57.99
2023-04-25T17:34:43.021Z,58.50
2023-04-25T17:37:06.335Z,59.10
2023-04-25T17:39:29.534Z,59.35
2023-04-25T17:41:52.768Z,59.84
2023-04-25T17:44:15.868Z,60.44
2023-04-25T17:46:39.031Z,60.67
2023-04-25T17:49:02.141Z,60.97
2023-04-25T17:51:24.963Z,61.55
2023-04-25T17:53:48.130Z,62.36
2023-04-25T17:56:23.298Z,62.85
2023-04-25T17:58:49.596Z,63.29
2023-04-25T18:01:12.947Z,63.31
2023-04-25T18:03:38.112Z,63.69
2023-04-25T18:06:00.934Z,63.49
2023-04-25T18:08:24.102Z,63.96
2023-04-25T18:10:47.063Z,64.50
2023-04-25T18:13:09.945Z,64.69
2023-04-25T18:15:32.728Z,64.72
2023-04-25T18:17:57.847Z,64.57
2023-04-25T18:20:22.298Z,65.16
2023-04-25T18:22:46.353Z,65.60
2023-04-25T18:25:13.302Z,65.66
2023-04-25T18:27:37.940Z,66.35
2023-04-25T18:30:01.438Z,66.57
2023-04-25T18:32:24.357Z,66.32
2023-04-25T18:34:50.102Z,66.58
2023-04-25T18:37:14.319Z,67.01
2023-04-25T18:39:37.140Z,66.96
2023-04-25T18:42:04.743Z,67.38
2023-04-25T18:44:30.954Z,67.59
2023-04-25T18:46:54.951Z,68.52
2023-04-25T18:49:19.342Z,68.51
2023-04-25T18:51:42.286Z,68.82
2023-04-25T18:54:05.193Z,69.00
2023-04-25T18:56:28.876Z,69.55
2023-04-25T18:58:55.477Z,69.77
2023-04-25T19:01:18.904Z,70.54
2023-04-25T19:03:41.975Z,71.00
2023-04-25T19:06:05.343Z,71.13
2023-04-25T19:08:28.727Z,71.54
2023-04-25T19:10:55.003Z,71.46
2023-04-25T19:13:18.106Z,72.21
2023-04-25T19:15:41.412Z,72.36
2023-04-25T19:18:04.931Z,72.54
2023-04-25T19:20:28.573Z,73.17
2023-04-25T19:22:53.289Z,72.73
2023-04-25T19:25:16.309Z,72.38
2023-04-25T19:27:39.621Z,72.12
2023-04-25T19:30:08.082Z,72.17
2023-04-25T19:32:32.006Z,71.35
2023-04-25T19:34:54.956Z,71.62
2023-04-25T19:37:17.746Z,71.29
2023-04-25T19:39:41.124Z,70.96
2023-04-25T19:42:04.389Z,70.93
2023-04-25T19:44:27.785Z,71.09
2023-04-25T19:46:50.828Z,71.27
2023-04-25T19:49:14.011Z,71.47
2023-04-25T19:51:37.405Z,71.35
2023-04-25T19:54:01.790Z,71.76
2023-04-25T19:56:24.588Z,71.99
2023-04-25T19:58:48.509Z,71.87
2023-04-25T20:01:11.804Z,72.30
2023-04-25T20:03:35.987Z,72.55
2023-04-25T20:05:58.797Z,72.76
2023-04-25T20:08:21.899Z,72.87
2023-04-25T20:10:45.265Z,72.75
2023-04-25T20:13:08.674Z,72.75
2023-04-25T20:15:31.969Z,73.08
2023-04-25T20:17:55.071Z,72.88
2023-04-25T20:20:18.708Z,73.10
2023-04-25T20:22:41.900Z,72.97
2023-04-25T20:25:06.680Z,73.51
2023-04-25T20:27:29.757Z,73.62
2023-04-25T20:29:54.609Z,73.76
2023-04-25T20:32:17.324Z,74.32
2023-04-25T20:34:39.901Z,74.29
2023-04-25T20:37:03.041Z,74.47
2023-04-25T20:39:26.986Z,74.63
2023-04-25T20:41:49.805Z,74.91
2023-04-25T20:44:12.863Z,74.83
2023-04-25T20:46:36.366Z,75.00
2023-04-25T20:49:00.151Z,75.06
2023-04-25T20:51:23.072Z,75.17
2023-04-25T20:53:45.645Z,75.40
2023-04-25T20:56:08.270Z,75.42
2023-04-25T20:58:31.197Z,75.47
2023-04-25T21:00:56.565Z,75.80
2023-04-25T21:03:19.349Z,75.27
2023-04-25T21:05:42.384Z,75.34
2023-04-25T21:08:05.892Z,75.81
2023-04-25T21:10:28.785Z,75.58
2023-04-25T21:12:52.038Z,75.52
2023-04-25T21:15:20.592Z,75.47
2023-04-25T21:17:47.301Z,75.10
2023-04-25T21:20:11.267Z,75.28
2023-04-25T21:22:33.990Z,75.34
2023-04-25T21:24:57.275Z,75.46
2023-04-25T21:27:20.309Z,75.43
2023-04-25T21:29:45.727Z,75.84
2023-04-25T21:32:08.998Z,75.89
2023-04-25T21:34:31.919Z,75.78
2023-04-25T21:36:54.479Z,75.64
2023-04-25T21:39:17.321Z,75.82
2023-04-25T21:41:40.406Z,76.25
2023-04-25T21:44:04.055Z,75.92
2023-04-25T21:46:26.955Z,76.26
2023-04-25T21:48:50.741Z,76.12
2023-04-25T21:51:13.710Z,76.08
2023-04-25T21:53:36.717Z,76.57
2023-04-25T21:55:59.360Z,76.63
2023-04-25T21:58:22.044Z,76.68
2023-04-25T22:00:44.717Z,76.53
2023-04-25T22:03:07.462Z,76.81
2023-04-25T22:05:30.137Z,76.99
2023-04-25T22:07:55.265Z,77.13
2023-04-25T22:10:18.715Z,77.37
2023-04-25T22:12:41.545Z,77.48
2023-04-25T22:15:04.492Z,77.39
2023-04-25T22:17:28.204Z,77.92
2023-04-25T22:19:52.481Z,77.79
2023-04-25T22:22:15.078Z,78.09
2023-04-25T22:24:38.900Z,78.02
2023-04-25T22:27:02.719Z,77.89
2023-04-25T22:29:25.478Z,77.86
2023-04-25T22:31:48.593Z,77.74
2023-04-25T22:34:11.848Z,77.92
2023-04-25T22:37:15.716Z,77.93
2023-04-25T22:39:38.443Z,77.68
2023-04-25T22:42:01.017Z,77.42
2023-04-25T22:44:23.691Z,77.19
2023-04-25T22:46:46.465Z,77.01
2023-04-25T22:49:09.302Z,77.21
2023-04-25T22:51:33.232Z,77.44
2023-04-25T22:53:56.734Z,77.28
2023-04-25T22:56:19.366Z,76.76
2023-04-25T22:58:42.959Z,76.47
2023-04-25T23:01:09.530Z,76.55
2023-04-25T23:03:32.676Z,76.66
2023-04-25T23:05:55.544Z,77.17
2023-04-25T23:08:18.714Z,77.24
2023-04-25T23:10:42.195Z,77.77
2023-04-25T23:13:05.111Z,77.95
2023-04-25T23:15:28.355Z,78.44
2023-04-25T23:17:51.064Z,78.45
2023-04-25T23:20:13.816Z,78.10
2023-04-25T23:22:36.563Z,78.13
2023-04-25T23:24:59.551Z,78.19
2023-04-25T23:27:22.431Z,78.08
2023-04-25T23:29:58.012Z,78.51
2023-04-25T23:32:22.348Z,78.00
2023-04-25T23:34:44.920Z,78.08
2023-04-25T23:37:08.515Z,78.18
2023-04-25T23:39:31.255Z,78.10
2023-04-25T23:41:53.976Z,78.20
2023-04-25T23:44:16.611Z,78.39
2023-04-25T23:46:39.267Z,78.34
2023-04-25T23:49:04.503Z,78.28
2023-04-25T23:51:27.813Z,78.30
2023-04-25T23:53:50.429Z,78.61
2023-04-25T23:56:13.132Z,78.59
2023-04-25T23:58:36.755Z,78.43
